createdAt,value
2017-06-09T00:01:05.379Z,0
2017-06-09T00:01:50.790Z,0
2017-06-09T00:02:50.808Z,0
2017-06-09T00:03:50.834Z,0
2017-06-09T00:04:50.861Z,0
2017-06-09T00:05:50.883Z,0
2017-06-09T00:06:50.906Z,0
2017-06-09T00:07:50.931Z,0
2017-06-09T00:08:50.952Z,0
2017-06-09T00:09:50.978Z,0
2017-06-09T00:10:51.008Z,0
2017-06-09T00:11:50.723Z,0
2017-06-09T00:12:50.751Z,0
2017-06-09T00:13:51.076Z,0
2017-06-09T00:14:50.795Z,0
2017-06-09T00:16:05.742Z,0
2017-06-09T00:17:50.871Z,0
2017-06-09T00:19:51.221Z,0
2017-06-09T00:20:51.247Z,0
2017-06-09T00:22:05.890Z,0
2017-06-09T00:22:50.691Z,0
2017-06-09T00:23:51.014Z,0
2017-06-09T00:24:51.340Z,0
2017-06-09T00:25:51.418Z,0
2017-06-09T00:26:51.390Z,0
2017-06-09T00:28:51.437Z,0
2017-06-09T00:29:51.473Z,0
2017-06-09T00:30:51.193Z,0
2017-06-09T00:31:51.513Z,0
2017-06-09T00:32:51.533Z,0
2017-06-09T00:33:51.257Z,0
2017-06-09T00:34:51.582Z,0
2017-06-09T00:35:51.610Z,0
2017-06-09T00:36:51.630Z,0
2017-06-09T00:37:51.659Z,0
2017-06-09T00:38:51.683Z,0
2017-06-09T00:39:51.703Z,0
2017-06-09T00:41:06.346Z,0
2017-06-09T00:41:51.451Z,0
2017-06-09T00:42:51.776Z,0
2017-06-09T00:43:51.798Z,0
2017-06-09T00:46:06.466Z,0
2017-06-09T00:46:51.877Z,0
2017-06-09T00:48:06.512Z,0
2017-06-09T00:48:52.170Z,0
2017-06-09T00:49:51.641Z,0
2017-06-09T00:50:51.667Z,0
2017-06-09T00:51:51.992Z,0
2017-06-09T00:52:52.016Z,0
2017-06-09T00:53:51.738Z,0
2017-06-09T00:54:52.064Z,0
2017-06-09T00:55:52.089Z,0
2017-06-09T00:56:52.111Z,0
2017-06-09T00:57:52.142Z,0
2017-06-09T00:58:52.160Z,0
2017-06-09T01:00:06.805Z,0
2017-06-09T01:00:52.209Z,0
2017-06-09T01:01:52.236Z,0
2017-06-09T01:02:52.256Z,0
2017-06-09T01:04:06.900Z,0
2017-06-09T01:04:52.308Z,0
2017-06-09T01:05:52.370Z,0
2017-06-09T01:06:52.054Z,0
2017-06-09T01:07:52.074Z,0
2017-06-09T01:08:52.095Z,0
2017-06-09T01:09:52.426Z,0
2017-06-09T01:10:52.447Z,0
2017-06-09T01:12:07.091Z,0
2017-06-09T01:12:52.495Z,0
2017-06-09T01:13:52.217Z,0
2017-06-09T01:14:52.544Z,0
2017-06-09T01:16:07.187Z,0
2017-06-09T01:17:07.208Z,0
2017-06-09T01:17:52.619Z,0
2017-06-09T01:18:52.638Z,0
2017-06-09T01:20:07.283Z,0
2017-06-09T01:22:52.737Z,0
2017-06-09T01:23:52.760Z,0
2017-06-09T01:24:52.481Z,0
2017-06-09T01:25:52.811Z,0
2017-06-09T01:26:52.831Z,0
2017-06-09T01:27:52.852Z,0
2017-06-09T01:28:52.878Z,0
2017-06-09T01:29:52.903Z,0
2017-06-09T01:30:52.925Z,0
2017-06-09T01:31:52.949Z,0
2017-06-09T01:34:53.020Z,0
2017-06-09T01:36:07.410Z,0
2017-06-09T01:37:52.789Z,0
2017-06-09T01:38:53.115Z,0
2017-06-09T01:39:53.142Z,0
2017-06-09T01:40:53.163Z,0
2017-06-09T01:41:53.186Z,0
2017-06-09T01:42:53.211Z,0
2017-06-09T01:43:53.234Z,0
2017-06-09T01:45:07.874Z,0
2017-06-09T01:45:53.281Z,0
2017-06-09T01:46:52.999Z,0
2017-06-09T01:47:53.332Z,0
2017-06-09T01:49:53.383Z,0
2017-06-09T01:51:08.020Z,0
2017-06-09T01:51:53.430Z,0
2017-06-09T01:53:53.473Z,0
2017-06-09T01:54:53.191Z,4
2017-06-09T01:55:53.519Z,4
2017-06-09T01:56:53.592Z,4
2017-06-09T01:57:53.566Z,4
2017-06-09T01:59:08.208Z,4
2017-06-09T01:59:53.613Z,0
2017-06-09T02:00:53.332Z,0
2017-06-09T02:02:08.279Z,4
2017-06-09T02:03:08.315Z,4
2017-06-09T02:04:53.732Z,8
2017-06-09T02:06:53.781Z,4
2017-06-09T02:07:53.846Z,8
2017-06-09T02:08:53.835Z,4
2017-06-09T02:09:53.851Z,8
2017-06-09T02:10:53.569Z,12
2017-06-09T02:11:53.902Z,12
2017-06-09T02:12:53.919Z,12
2017-06-09T02:13:53.947Z,16
2017-06-09T02:14:53.667Z,16
2017-06-09T02:16:08.304Z,20
2017-06-09T02:16:53.713Z,20
2017-06-09T02:17:54.038Z,24
2017-06-09T02:18:54.063Z,24
2017-06-09T02:20:08.701Z,24
2017-06-09T02:20:54.117Z,28
2017-06-09T02:23:08.776Z,36
2017-06-09T02:23:54.177Z,44
2017-06-09T02:25:54.226Z,52
2017-06-09T02:26:54.247Z,56
2017-06-09T02:27:54.273Z,60
2017-06-09T02:28:54.309Z,72
2017-06-09T02:29:54.319Z,76
2017-06-09T02:30:54.352Z,88
2017-06-09T02:31:54.372Z,96
2017-06-09T02:33:09.006Z,112
2017-06-09T02:35:54.485Z,148
2017-06-09T02:36:54.536Z,164
2017-06-09T02:37:54.506Z,180
2017-06-09T02:39:08.852Z,196
2017-06-09T02:39:54.557Z,204
2017-06-09T02:40:54.578Z,220
2017-06-09T02:41:54.608Z,232
2017-06-09T02:42:54.320Z,244
2017-06-09T02:43:54.646Z,264
2017-06-09T02:44:54.366Z,284
2017-06-09T02:45:54.398Z,304
2017-06-09T02:46:54.717Z,336
2017-06-09T02:47:54.738Z,360
2017-06-09T02:49:09.382Z,404
2017-06-09T02:50:09.410Z,432
2017-06-09T02:50:54.812Z,460
2017-06-09T02:52:54.862Z,528
2017-06-09T02:55:09.521Z,604
2017-06-09T02:56:54.654Z,664
2017-06-09T02:57:54.973Z,696
2017-06-09T02:58:54.999Z,732
2017-06-09T02:59:55.019Z,768
2017-06-09T03:00:55.045Z,804
2017-06-09T03:01:55.086Z,840
2017-06-09T03:02:55.090Z,884
2017-06-09T03:03:55.114Z,924
2017-06-09T03:04:54.838Z,972
2017-06-09T03:05:54.856Z,1020
2017-06-09T03:06:55.184Z,1072
2017-06-09T03:07:55.216Z,1124
2017-06-09T03:08:54.931Z,1168
2017-06-09T03:09:55.253Z,1220
2017-06-09T03:11:09.912Z,1304
2017-06-09T03:11:55.299Z,1364
2017-06-09T03:12:55.022Z,1444
2017-06-09T03:13:55.396Z,1528
2017-06-09T03:14:55.373Z,1604
2017-06-09T03:15:55.396Z,1688
2017-06-09T03:16:55.416Z,1764
2017-06-09T03:17:55.441Z,1840
2017-06-09T03:18:55.468Z,1912
2017-06-09T03:20:10.110Z,2028
2017-06-09T03:20:55.509Z,2112
2017-06-09T03:21:55.534Z,2244
2017-06-09T03:23:10.178Z,2404
2017-06-09T03:24:10.248Z,2524
2017-06-09T03:24:55.608Z,2620
2017-06-09T03:26:09.675Z,2760
2017-06-09T03:26:55.653Z,2836
2017-06-09T03:27:55.072Z,2928
2017-06-09T03:28:55.734Z,3020
2017-06-09T03:29:55.724Z,3096
2017-06-09T03:30:55.745Z,3148
2017-06-09T03:31:55.767Z,3196
2017-06-09T03:32:55.491Z,3252
2017-06-09T03:34:10.482Z,3328
2017-06-09T03:34:55.838Z,3376
2017-06-09T03:36:55.894Z,3528
2017-06-09T03:37:55.909Z,3628
2017-06-09T03:38:55.934Z,4580
2017-06-09T03:39:55.960Z,5264
2017-06-09T03:40:55.985Z,3956
2017-06-09T03:41:56.005Z,4004
2017-06-09T03:42:56.026Z,4040
2017-06-09T03:43:56.054Z,3916
2017-06-09T03:44:56.075Z,3928
2017-06-09T03:45:56.147Z,3908
2017-06-09T03:46:56.127Z,3944
2017-06-09T03:47:56.144Z,4040
2017-06-09T03:48:55.868Z,4096
2017-06-09T03:49:56.196Z,4092
2017-06-09T03:50:56.221Z,4024
2017-06-09T03:51:56.241Z,3984
2017-06-09T03:52:56.265Z,4008
2017-06-09T03:54:10.904Z,4112
2017-06-09T03:55:10.933Z,4204
2017-06-09T03:55:56.344Z,4236
2017-06-09T03:56:56.411Z,4324
2017-06-09T03:58:25.625Z,4484
2017-06-09T03:58:56.410Z,4428
2017-06-09T04:00:56.456Z,4544
2017-06-09T04:01:56.479Z,4800
2017-06-09T04:02:56.502Z,4916
2017-06-09T04:03:56.528Z,4728
2017-06-09T04:04:56.550Z,4880
2017-06-09T04:05:56.575Z,5128
2017-06-09T04:06:56.293Z,5324
2017-06-09T04:07:56.620Z,6484
2017-06-09T04:08:56.644Z,11064
2017-06-09T04:09:56.667Z,18432
2017-06-09T04:10:56.695Z,27680
2017-06-09T04:11:56.717Z,31648
2017-06-09T04:12:56.438Z,34752
2017-06-09T04:14:11.385Z,36896
2017-06-09T04:15:56.820Z,41472
2017-06-09T04:16:56.893Z,46400
2017-06-09T04:17:56.866Z,46976
2017-06-09T04:18:56.889Z,51200
2017-06-09T04:19:56.916Z,52576
2017-06-09T04:21:11.562Z,54528
2017-06-09T04:21:56.969Z,54272
2017-06-09T04:22:56.996Z,56288
2017-06-09T04:24:11.638Z,55392
2017-06-09T04:25:11.668Z,56192
2017-06-09T04:25:57.073Z,56928
2017-06-09T04:27:57.129Z,59072
2017-06-09T04:28:57.156Z,59328
2017-06-09T04:30:11.802Z,60928
2017-06-09T04:31:57.245Z,60160
2017-06-09T04:32:57.269Z,59808
2017-06-09T04:33:57.297Z,61696
2017-06-09T04:34:57.326Z,61024
2017-06-09T04:35:57.054Z,52640
2017-06-09T04:36:57.388Z,52608
2017-06-09T04:37:57.418Z,58912
2017-06-09T04:39:12.066Z,61856
2017-06-09T04:39:57.478Z,62656
2017-06-09T04:40:57.509Z,65536
2017-06-09T04:43:57.601Z,65696
2017-06-09T04:44:57.630Z,66080
2017-06-09T04:46:11.978Z,62304
2017-06-09T04:46:57.692Z,63424
2017-06-09T04:48:57.759Z,67168
2017-06-09T04:49:57.789Z,70944
2017-06-09T04:50:57.520Z,72512
2017-06-09T04:51:57.551Z,56160
2017-06-09T04:53:12.510Z,53216
2017-06-09T04:53:57.919Z,60128
2017-06-09T04:54:57.951Z,67040
2017-06-09T04:55:57.985Z,71712
2017-06-09T04:56:57.769Z,72352
2017-06-09T04:57:58.053Z,71264
2017-06-09T04:58:57.784Z,68192
2017-06-09T04:59:58.123Z,70496
2017-06-09T05:01:12.172Z,69440
2017-06-09T05:03:58.255Z,70592
2017-06-09T05:04:58.292Z,66144
2017-06-09T05:05:58.326Z,66176
2017-06-09T05:06:58.354Z,68800
2017-06-09T05:07:58.114Z,70848
2017-06-09T05:08:58.425Z,72416
2017-06-09T05:09:58.456Z,75904
2017-06-09T05:10:58.188Z,76064
2017-06-09T05:11:58.537Z,77984
2017-06-09T05:13:58.596Z,81024
2017-06-09T05:15:58.667Z,80576
2017-06-09T05:16:58.703Z,77280
2017-06-09T05:17:58.786Z,75776
2017-06-09T05:18:58.773Z,76544
2017-06-09T05:19:58.809Z,79328
2017-06-09T05:20:58.843Z,79648
2017-06-09T05:21:58.882Z,78656
2017-06-09T05:22:58.915Z,78752
2017-06-09T05:23:58.953Z,80224
2017-06-09T05:24:58.683Z,77952
2017-06-09T05:25:58.415Z,78624
2017-06-09T05:26:59.059Z,74880
2017-06-09T05:29:13.447Z,76288
2017-06-09T05:30:58.901Z,79232
2017-06-09T05:31:59.236Z,75776
2017-06-09T05:33:13.894Z,72576
2017-06-09T05:33:59.308Z,72224
2017-06-09T05:34:59.043Z,73376
2017-06-09T05:35:59.119Z,69120
2017-06-09T05:36:59.469Z,70016
2017-06-09T05:37:59.454Z,73184
2017-06-09T05:38:59.490Z,75360
2017-06-09T05:39:59.530Z,76864
2017-06-09T05:41:14.184Z,76736
2017-06-09T05:41:59.596Z,78272
2017-06-09T05:43:14.254Z,79040
2017-06-09T05:44:14.292Z,78368
2017-06-09T05:44:59.705Z,78592
2017-06-09T05:45:59.742Z,73824
2017-06-09T05:47:14.400Z,67840
2017-06-09T05:47:59.814Z,68288
2017-06-09T05:49:14.471Z,75552
2017-06-09T05:49:59.886Z,79200
2017-06-09T05:50:59.622Z,78240
2017-06-09T05:51:59.959Z,77440
2017-06-09T05:53:00.001Z,77440
2017-06-09T05:53:59.727Z,78144
2017-06-09T05:54:59.765Z,79680
2017-06-09T05:55:59.801Z,82784
2017-06-09T05:57:00.142Z,85888
2017-06-09T05:58:00.178Z,86368
2017-06-09T05:59:14.836Z,87328
2017-06-09T06:00:14.931Z,90560
2017-06-09T06:01:00.291Z,91904
2017-06-09T06:03:00.363Z,90624
2017-06-09T06:04:00.409Z,94240
2017-06-09T06:05:15.058Z,92352
2017-06-09T06:06:00.473Z,90976
2017-06-09T06:07:00.514Z,82336
2017-06-09T06:08:00.549Z,83648
2017-06-09T06:09:00.280Z,81600
2017-06-09T06:10:00.624Z,76256
2017-06-09T06:11:00.669Z,70144
2017-06-09T06:12:15.321Z,69408
2017-06-09T06:13:00.735Z,71328
2017-06-09T06:14:15.394Z,77984
2017-06-09T06:15:00.814Z,83136
2017-06-09T06:16:15.467Z,84096
2017-06-09T06:17:00.589Z,81344
2017-06-09T06:19:00.967Z,88096
2017-06-09T06:20:00.693Z,89312
2017-06-09T06:21:15.660Z,91296
2017-06-09T06:22:01.072Z,92384
2017-06-09T06:23:01.117Z,92544
2017-06-09T06:25:01.186Z,89440
2017-06-09T06:26:01.226Z,84608
2017-06-09T06:27:01.264Z,85728
2017-06-09T06:28:01.302Z,88832
2017-06-09T06:29:15.961Z,88000
2017-06-09T06:30:16.003Z,86560
2017-06-09T06:31:01.467Z,84736
2017-06-09T06:32:01.455Z,85152
2017-06-09T06:33:01.503Z,83968
2017-06-09T06:34:01.539Z,81728
2017-06-09T06:35:01.270Z,83968
2017-06-09T06:36:15.977Z,81312
2017-06-09T06:37:01.685Z,77536
2017-06-09T06:40:01.768Z,77440
2017-06-09T06:41:16.429Z,71648
2017-06-09T06:42:01.840Z,77472
2017-06-09T06:43:01.884Z,76192
2017-06-09T06:44:16.239Z,71008
2017-06-09T06:45:01.959Z,76384
2017-06-09T06:46:02.003Z,77376
2017-06-09T06:47:02.038Z,73056
2017-06-09T06:48:02.077Z,65792
2017-06-09T06:49:02.116Z,66368
2017-06-09T06:50:02.160Z,67872
2017-06-09T06:51:02.193Z,61728
2017-06-09T06:54:02.009Z,69408
2017-06-09T06:55:02.352Z,64896
2017-06-09T06:56:02.391Z,56160
2017-06-09T06:57:02.429Z,59360
2017-06-09T06:58:02.463Z,57056
2017-06-09T06:59:02.505Z,56576
2017-06-09T07:00:02.543Z,46336
2017-06-09T07:01:02.028Z,50304
2017-06-09T07:02:02.666Z,49888
2017-06-09T07:03:02.655Z,52768
2017-06-09T07:04:02.692Z,54080
2017-06-09T07:05:17.353Z,51456
2017-06-09T07:06:02.771Z,51520
2017-06-09T07:07:02.807Z,43744
2017-06-09T07:08:17.468Z,34880
2017-06-09T07:09:02.886Z,41472
2017-06-09T07:10:02.929Z,52320
2017-06-09T07:11:02.958Z,58784
2017-06-09T07:12:02.694Z,62752
2017-06-09T07:13:03.032Z,67136
2017-06-09T07:14:03.070Z,62688
2017-06-09T07:15:03.158Z,63904
2017-06-09T07:17:03.186Z,54016
2017-06-09T07:18:02.917Z,51680
2017-06-09T07:19:17.878Z,48640
2017-06-09T07:21:11.455Z,47072
2017-06-09T07:22:03.112Z,41952
2017-06-09T07:23:03.408Z,38432
2017-06-09T07:24:18.072Z,47968
2017-06-09T07:25:03.483Z,55168
2017-06-09T07:26:03.519Z,59520
2017-06-09T07:27:03.311Z,54336
2017-06-09T07:28:03.595Z,59584
2017-06-09T07:29:03.632Z,62912
2017-06-09T07:30:03.670Z,63872
2017-06-09T07:31:03.705Z,68480
2017-06-09T07:32:03.744Z,66080
2017-06-09T07:33:03.779Z,59680
2017-06-09T07:34:03.816Z,62912
2017-06-09T07:35:03.853Z,60224
2017-06-09T07:36:03.893Z,37536
2017-06-09T07:38:03.969Z,53824
2017-06-09T07:40:18.666Z,58592
2017-06-09T07:41:04.080Z,56896
2017-06-09T07:42:04.123Z,57824
2017-06-09T07:43:03.546Z,60320
2017-06-09T07:44:04.243Z,61600
2017-06-09T07:45:04.235Z,66144
2017-06-09T07:46:04.267Z,67168
2017-06-09T07:47:04.308Z,62880
2017-06-09T07:48:04.044Z,61376
2017-06-09T07:49:19.001Z,62144
2017-06-09T07:50:04.423Z,63520
2017-06-09T07:51:04.458Z,62752
2017-06-09T07:52:19.113Z,61664
2017-06-09T07:54:04.572Z,60192
2017-06-09T07:55:04.302Z,60320
2017-06-09T07:56:19.266Z,59200
2017-06-09T07:57:04.692Z,56896
2017-06-09T07:58:04.720Z,55808
2017-06-09T07:59:04.759Z,57440
2017-06-09T08:00:04.799Z,54432
2017-06-09T08:01:04.835Z,49920
2017-06-09T08:02:04.874Z,49344
2017-06-09T08:03:04.609Z,49056
2017-06-09T08:04:04.949Z,56928
2017-06-09T08:05:04.735Z,57088
2017-06-09T08:06:05.024Z,54880
2017-06-09T08:07:05.062Z,47808
2017-06-09T08:08:05.101Z,32352
2017-06-09T08:09:04.836Z,23616
2017-06-09T08:10:05.176Z,21152
2017-06-09T08:11:19.531Z,20192
2017-06-09T08:12:04.951Z,19712
2017-06-09T08:13:05.290Z,19488
2017-06-09T08:14:05.327Z,19424
2017-06-09T08:15:05.062Z,19232
2017-06-09T08:16:19.419Z,18720
2017-06-09T08:17:05.443Z,18912
2017-06-09T08:18:05.173Z,18496
2017-06-09T08:19:05.520Z,18304
2017-06-09T08:20:05.298Z,18272
2017-06-09T08:21:05.592Z,17888
2017-06-09T08:22:05.636Z,17984
2017-06-09T08:23:05.670Z,17696
2017-06-09T08:24:05.705Z,18240
2017-06-09T08:25:05.748Z,18400
2017-06-09T08:26:05.777Z,18432
2017-06-09T08:27:05.851Z,18336
2017-06-09T08:28:05.852Z,18848
2017-06-09T08:29:05.891Z,18816
2017-06-09T08:30:05.629Z,18720
2017-06-09T08:31:05.965Z,18592
2017-06-09T08:32:06.004Z,18560
2017-06-09T08:33:06.043Z,18368
2017-06-09T08:34:06.080Z,17984
2017-06-09T08:35:06.118Z,17920
2017-06-09T08:36:05.850Z,17824
2017-06-09T08:37:20.815Z,17376
2017-06-09T08:38:06.233Z,17108
2017-06-09T08:39:06.319Z,16712
2017-06-09T08:40:06.004Z,16488
2017-06-09T08:41:06.340Z,16132
2017-06-09T08:42:06.377Z,16016
2017-06-09T08:43:21.036Z,16148
2017-06-09T08:44:06.456Z,16080
2017-06-09T08:45:06.491Z,16348
2017-06-09T08:46:06.572Z,16572
2017-06-09T08:47:06.567Z,16672
2017-06-09T08:48:06.601Z,16964
2017-06-09T08:49:06.640Z,16344
2017-06-09T08:50:06.372Z,16500
2017-06-09T08:51:06.419Z,16328
2017-06-09T08:52:21.370Z,16260
2017-06-09T08:53:06.484Z,15908
2017-06-09T08:54:21.444Z,15836
2017-06-09T08:56:06.596Z,15596
2017-06-09T08:57:21.554Z,15284
2017-06-09T08:58:06.972Z,15436
2017-06-09T08:59:21.629Z,15576
2017-06-09T09:00:06.773Z,15440
2017-06-09T09:01:07.083Z,15504
2017-06-09T09:02:07.119Z,15440
2017-06-09T09:03:06.856Z,15464
2017-06-09T09:04:07.197Z,15376
2017-06-09T09:05:07.233Z,15296
2017-06-09T09:06:21.586Z,15204
2017-06-09T09:07:07.006Z,15060
2017-06-09T09:08:21.962Z,15004
2017-06-09T09:09:07.377Z,15060
2017-06-09T09:11:07.452Z,14908
2017-06-09T09:12:07.496Z,14820
2017-06-09T09:13:07.530Z,14772
2017-06-09T09:14:07.257Z,14748
2017-06-09T09:15:22.217Z,14588
2017-06-09T09:16:07.634Z,14500
2017-06-09T09:17:07.672Z,14440
2017-06-09T09:18:07.709Z,14328
2017-06-09T09:19:07.745Z,14232
2017-06-09T09:20:07.785Z,14188
2017-06-09T09:21:07.818Z,14088
2017-06-09T09:22:07.862Z,13944
2017-06-09T09:23:07.927Z,13908
2017-06-09T09:24:07.927Z,13788
2017-06-09T09:25:07.960Z,13708
2017-06-09T09:26:07.696Z,13732
2017-06-09T09:27:08.044Z,13640
2017-06-09T09:28:07.765Z,13548
2017-06-09T09:29:07.803Z,13464
2017-06-09T09:30:08.142Z,13356
2017-06-09T09:31:22.498Z,13312
2017-06-09T09:32:08.215Z,13288
2017-06-09T09:33:07.948Z,13192
2017-06-09T09:34:08.338Z,13148
2017-06-09T09:35:08.325Z,13072
2017-06-09T09:36:08.364Z,13008
2017-06-09T09:37:08.397Z,12896
2017-06-09T09:38:08.430Z,12908
2017-06-09T09:39:08.168Z,12864
2017-06-09T09:40:08.203Z,12772
2017-06-09T09:41:08.540Z,12732
2017-06-09T09:42:08.324Z,12660
2017-06-09T09:43:08.306Z,12596
2017-06-09T09:44:08.345Z,12544
2017-06-09T09:45:08.383Z,12484
2017-06-09T09:46:23.342Z,12400
2017-06-09T09:47:08.766Z,12332
2017-06-09T09:48:08.795Z,12284
2017-06-09T09:49:08.827Z,12252
2017-06-09T09:50:08.873Z,12220
2017-06-09T09:51:08.899Z,12144
2017-06-09T09:52:08.938Z,12096
2017-06-09T09:53:08.668Z,12024
2017-06-09T09:54:23.324Z,11964
2017-06-09T09:55:09.043Z,11936
2017-06-09T09:56:08.776Z,11932
2017-06-09T09:57:09.118Z,11900
2017-06-09T09:58:23.775Z,11848
2017-06-09T10:01:08.955Z,11740
2017-06-09T10:02:08.988Z,11724
2017-06-09T10:03:09.329Z,11664
2017-06-09T10:04:09.060Z,11648
2017-06-09T10:05:09.400Z,11608
2017-06-09T10:06:09.127Z,11584
2017-06-09T10:07:09.466Z,11544
2017-06-09T10:08:09.506Z,11528
2017-06-09T10:09:09.538Z,11456
2017-06-09T10:10:09.576Z,11424
2017-06-09T10:11:09.003Z,11380
2017-06-09T10:12:09.649Z,11340
2017-06-09T10:13:24.299Z,11248
2017-06-09T10:14:09.713Z,11224
2017-06-09T10:15:09.753Z,11180
2017-06-09T10:17:09.819Z,11100
2017-06-09T10:18:24.169Z,11084
2017-06-09T10:19:09.890Z,11060
2017-06-09T10:20:09.927Z,11000
2017-06-09T10:21:09.660Z,10968
2017-06-09T10:22:09.997Z,10932
2017-06-09T10:23:10.031Z,10912
2017-06-09T10:24:10.066Z,10856
2017-06-09T10:25:09.795Z,10824
2017-06-09T10:26:09.826Z,10804
2017-06-09T10:27:09.867Z,10740
2017-06-09T10:28:10.202Z,10760
2017-06-09T10:29:09.987Z,10684
2017-06-09T10:30:09.666Z,10636
2017-06-09T10:31:24.924Z,10600
2017-06-09T10:32:10.042Z,10564
2017-06-09T10:33:10.374Z,10508
2017-06-09T10:34:25.028Z,10500
2017-06-09T10:35:10.146Z,10460
2017-06-09T10:37:10.216Z,10424
2017-06-09T10:38:10.242Z,10388
2017-06-09T10:39:10.583Z,10340
2017-06-09T10:40:10.313Z,10296
2017-06-09T10:41:10.647Z,10224
2017-06-09T10:42:24.998Z,10244
2017-06-09T10:43:10.443Z,10196
2017-06-09T10:44:10.748Z,10208
2017-06-09T10:45:10.784Z,10188
2017-06-09T10:46:10.513Z,10148
2017-06-09T10:47:10.549Z,10100
2017-06-09T10:48:10.584Z,9748
2017-06-09T10:49:10.317Z,9540
2017-06-09T10:50:25.575Z,9532
2017-06-09T10:52:10.717Z,9276
2017-06-09T10:53:11.054Z,9352
2017-06-09T10:54:10.782Z,9508
2017-06-09T10:55:11.124Z,9684
2017-06-09T10:56:11.157Z,9668
2017-06-09T10:57:10.595Z,9620
2017-06-09T10:58:10.619Z,9660
2017-06-09T10:59:11.254Z,9564
2017-06-09T11:00:10.989Z,9444
2017-06-09T11:01:11.320Z,9464
2017-06-09T11:02:11.051Z,8956
2017-06-09T11:03:11.389Z,8976
2017-06-09T11:04:11.117Z,7892
2017-06-09T11:05:11.148Z,7288
2017-06-09T11:06:26.105Z,7996
2017-06-09T11:07:11.571Z,8060
2017-06-09T11:08:11.557Z,8168
2017-06-09T11:09:11.285Z,7984
2017-06-09T11:10:11.316Z,8640
2017-06-09T11:11:11.656Z,8552
2017-06-09T11:12:11.686Z,8780
2017-06-09T11:13:11.766Z,8852
2017-06-09T11:14:11.449Z,8700
2017-06-09T11:15:26.405Z,8872
2017-06-09T11:17:26.476Z,9408
2017-06-09T11:18:11.885Z,9356
2017-06-09T11:19:11.927Z,9552
2017-06-09T11:20:11.987Z,9752
2017-06-09T11:21:26.602Z,9784
2017-06-09T11:22:12.015Z,10036
2017-06-09T11:23:11.801Z,9776
2017-06-09T11:24:11.475Z,9800
2017-06-09T11:25:12.115Z,10032
2017-06-09T11:26:11.846Z,9872
2017-06-09T11:27:11.878Z,9088
2017-06-09T11:28:26.833Z,8844
2017-06-09T11:29:12.301Z,9148
2017-06-09T11:30:12.279Z,9276
2017-06-09T11:31:12.005Z,9156
2017-06-09T11:32:26.963Z,9348
2017-06-09T11:33:12.378Z,9172
2017-06-09T11:34:27.025Z,9108
2017-06-09T11:35:12.440Z,9068
2017-06-09T11:36:12.473Z,8712
2017-06-09T11:38:12.538Z,8104
2017-06-09T11:39:12.577Z,8240
2017-06-09T11:40:12.300Z,7940
2017-06-09T11:41:12.637Z,7664
2017-06-09T11:42:12.369Z,7900
2017-06-09T11:43:12.730Z,7592
2017-06-09T11:44:12.784Z,7960
2017-06-09T11:45:12.471Z,7852
2017-06-09T11:46:12.192Z,7820
2017-06-09T11:47:27.148Z,7664
2017-06-09T11:48:12.567Z,7604
2017-06-09T11:49:12.594Z,7548
2017-06-09T11:50:27.550Z,7464
2017-06-09T11:51:12.963Z,7444
2017-06-09T11:52:12.695Z,7372
2017-06-09T11:53:27.651Z,7124
2017-06-09T11:56:13.177Z,6716
2017-06-09T11:58:13.189Z,5864
2017-06-09T11:59:27.848Z,5856
2017-06-09T12:00:13.308Z,6492
2017-06-09T12:01:12.984Z,6536
2017-06-09T12:02:13.319Z,6636
2017-06-09T12:03:13.353Z,6684
2017-06-09T12:04:27.397Z,6644
2017-06-09T12:05:13.115Z,6696
2017-06-09T12:06:13.450Z,6688
2017-06-09T12:07:13.483Z,6684
2017-06-09T12:08:13.516Z,6676
2017-06-09T12:09:28.166Z,6740
2017-06-09T12:10:13.578Z,6728
2017-06-09T12:11:13.663Z,6724
2017-06-09T12:12:13.341Z,6752
2017-06-09T12:13:13.373Z,6784
2017-06-09T12:14:13.708Z,6796
2017-06-09T12:15:13.740Z,6804
2017-06-09T12:16:13.471Z,6800
2017-06-09T12:17:13.809Z,6776
2017-06-09T12:18:13.532Z,6756
2017-06-09T12:19:13.869Z,6764
2017-06-09T12:20:13.602Z,6768
2017-06-09T12:21:13.936Z,6644
2017-06-09T12:22:13.965Z,6572
2017-06-09T12:24:14.031Z,6560
2017-06-09T12:25:28.984Z,6640
2017-06-09T12:26:14.095Z,6672
2017-06-09T12:27:13.828Z,6680
2017-06-09T12:28:13.860Z,6652
2017-06-09T12:29:13.889Z,6604
2017-06-09T12:30:13.923Z,6024
2017-06-09T12:31:14.261Z,5328
2017-06-09T12:32:14.292Z,6108
2017-06-09T12:33:14.326Z,6312
2017-06-09T12:34:14.358Z,6604
2017-06-09T12:35:14.389Z,6636
2017-06-09T12:36:14.118Z,6396
2017-06-09T12:37:28.767Z,6280
2017-06-09T12:38:14.186Z,5872
2017-06-09T12:39:14.517Z,5352
2017-06-09T12:40:14.244Z,5900
2017-06-09T12:42:14.615Z,7000
2017-06-09T12:43:14.647Z,7296
2017-06-09T12:44:14.677Z,7192
2017-06-09T12:45:14.711Z,7100
2017-06-09T12:46:14.747Z,7204
2017-06-09T12:47:14.772Z,7680
2017-06-09T12:48:14.809Z,7888
2017-06-09T12:49:14.843Z,8384
2017-06-09T12:50:14.877Z,8644
2017-06-09T12:51:14.900Z,8340
2017-06-09T12:52:14.937Z,8984
2017-06-09T12:53:29.589Z,9172
2017-06-09T12:54:29.617Z,9276
2017-06-09T12:55:14.432Z,9260
2017-06-09T12:56:29.380Z,9416
2017-06-09T12:58:15.131Z,9128
2017-06-09T13:00:15.196Z,9252
2017-06-09T13:01:15.228Z,8976
2017-06-09T13:02:14.955Z,8336
2017-06-09T13:03:14.984Z,7848
2017-06-09T13:04:15.338Z,6568
2017-06-09T13:05:15.351Z,7012
2017-06-09T13:06:15.080Z,7016
2017-06-09T13:07:15.467Z,7336
2017-06-09T13:08:15.151Z,7092
2017-06-09T13:10:15.217Z,6096
2017-06-09T13:11:15.543Z,6200
2017-06-09T13:12:15.578Z,6996
2017-06-09T13:13:15.606Z,7432
2017-06-09T13:14:15.645Z,8488
2017-06-09T13:15:15.370Z,8688
2017-06-09T13:16:15.705Z,9108
2017-06-09T13:17:15.737Z,9304
2017-06-09T13:18:15.770Z,9216
2017-06-09T13:19:15.800Z,8156
2017-06-09T13:20:15.834Z,8660
2017-06-09T13:21:15.561Z,8360
2017-06-09T13:22:15.908Z,7428
2017-06-09T13:23:15.928Z,6692
2017-06-09T13:24:15.657Z,7008
2017-06-09T13:25:30.610Z,6792
2017-06-09T13:26:15.721Z,6688
2017-06-09T13:27:16.056Z,6796
2017-06-09T13:28:30.713Z,7172
2017-06-09T13:29:16.119Z,7236
2017-06-09T13:30:16.162Z,7664
2017-06-09T13:31:15.882Z,8080
2017-06-09T13:33:15.945Z,8540
2017-06-09T13:34:16.279Z,8140
2017-06-09T13:35:16.009Z,7720
2017-06-09T13:36:16.344Z,7432
2017-06-09T13:37:16.070Z,8644
2017-06-09T13:38:16.406Z,8956
2017-06-09T13:39:16.437Z,8868
2017-06-09T13:40:15.867Z,8724
2017-06-09T13:41:31.124Z,8592
2017-06-09T13:43:16.618Z,8616
2017-06-09T13:44:31.222Z,8348
2017-06-09T13:45:16.631Z,8344
2017-06-09T13:47:16.394Z,8888
2017-06-09T13:48:16.727Z,9160
2017-06-09T13:49:16.457Z,9224
2017-06-09T13:50:16.840Z,9164
2017-06-09T13:51:31.496Z,8540
2017-06-09T13:52:16.860Z,9048
2017-06-09T13:53:31.559Z,9120
2017-06-09T13:54:16.918Z,8892
2017-06-09T13:55:16.956Z,8740
2017-06-09T13:56:16.731Z,8420
2017-06-09T13:58:31.667Z,7700
2017-06-09T13:59:17.083Z,7596
2017-06-09T14:00:31.733Z,7280
2017-06-09T14:01:17.142Z,7164
2017-06-09T14:02:17.179Z,7420
2017-06-09T14:03:17.210Z,7532
2017-06-09T14:04:17.340Z,7472
2017-06-09T14:05:17.276Z,7164
2017-06-09T14:06:17.001Z,7148
2017-06-09T14:07:17.340Z,7164
2017-06-09T14:08:17.374Z,7256
2017-06-09T14:09:17.401Z,7376
2017-06-09T14:10:17.440Z,7644
2017-06-09T14:11:17.162Z,7856
2017-06-09T14:12:32.140Z,8244
2017-06-09T14:13:17.531Z,8360
2017-06-09T14:14:17.567Z,8480
2017-06-09T14:15:17.603Z,8528
2017-06-09T14:16:32.248Z,8692
2017-06-09T14:18:17.690Z,9088
2017-06-09T14:19:17.721Z,9052
2017-06-09T14:20:17.758Z,8856
2017-06-09T14:21:17.788Z,8744
2017-06-09T14:22:17.816Z,8696
2017-06-09T14:23:18.155Z,8668
2017-06-09T14:24:17.275Z,8584
2017-06-09T14:25:17.615Z,8376
2017-06-09T14:26:32.567Z,8136
2017-06-09T14:27:17.733Z,8052
2017-06-09T14:28:32.632Z,7960
2017-06-09T14:29:32.661Z,7880